sensor_id;sensor_type;location;lat;lon;timestamp;pressure;altitude;pressure_sealevel;temperature;humidity
47811;BME280;33575;52.600;7.318;2023-03-03T00:01:43;102351.98;;;1.86;92.64
47811;BME280;33575;52.600;7.318;2023-03-03T00:04:13;102348.69;;;1.92;92.69
47811;BME280;33575;52.600;7.318;2023-03-03T00:06:44;102347.18;;;2.00;92.72
47811;BME280;33575;52.600;7.318;2023-03-03T00:09:13;102350.26;;;2.04;92.20
47811;BME280;33575;52.600;7.318;2023-03-03T00:11:45;102350.01;;;2.05;92.21
47811;BME280;33575;52.600;7.318;2023-03-03T00:14:21;102348.99;;;2.03;92.80
47811;BME280;33575;52.600;7.318;2023-03-03T00:16:45;102350.71;;;2.00;92.19
47811;BME280;33575;52.600;7.318;2023-03-03T00:19:18;102349.83;;;1.97;91.68
47811;BME280;33575;52.600;7.318;2023-03-03T00:21:47;102351.64;;;1.91;92.12
47811;BME280;33575;52.600;7.318;2023-03-03T00:24:19;102351.36;;;1.93;91.99
47811;BME280;33575;52.600;7.318;2023-03-03T00:26:48;102351.08;;;1.93;92.19
47811;BME280;33575;52.600;7.318;2023-03-03T00:29:25;102351.74;;;1.88;91.72
47811;BME280;33575;52.600;7.318;2023-03-03T00:31:48;102345.04;;;1.86;92.30
47811;BME280;33575;52.600;7.318;2023-03-03T00:34:24;102350.85;;;1.83;93.06
47811;BME280;33575;52.600;7.318;2023-03-03T00:36:52;102356.91;;;1.80;93.46
47811;BME280;33575;52.600;7.318;2023-03-03T00:39:26;102352.33;;;1.81;93.88
47811;BME280;33575;52.600;7.318;2023-03-03T00:41:51;102355.12;;;1.93;93.68
47811;BME280;33575;52.600;7.318;2023-03-03T00:46:51;102355.38;;;1.92;93.05
47811;BME280;33575;52.600;7.318;2023-03-03T00:49:24;102352.05;;;1.72;90.30
47811;BME280;33575;52.600;7.318;2023-03-03T00:51:52;102353.45;;;1.57;91.65
47811;BME280;33575;52.600;7.318;2023-03-03T00:54:22;102356.85;;;1.39;90.26
47811;BME280;33575;52.600;7.318;2023-03-03T00:56:52;102362.39;;;1.16;90.95
47811;BME280;33575;52.600;7.318;2023-03-03T00:59:23;102361.07;;;0.99;91.22
47811;BME280;33575;52.600;7.318;2023-03-03T01:01:54;102360.00;;;0.92;93.37
47811;BME280;33575;52.600;7.318;2023-03-03T01:04:24;102357.87;;;0.92;93.20
47811;BME280;33575;52.600;7.318;2023-03-03T01:06:55;102356.38;;;0.90;93.83
47811;BME280;33575;52.600;7.318;2023-03-03T01:09:26;102357.94;;;0.86;93.75
47811;BME280;33575;52.600;7.318;2023-03-03T01:11:56;102358.33;;;0.90;94.40
47811;BME280;33575;52.600;7.318;2023-03-03T01:14:26;102357.02;;;0.93;95.18
47811;BME280;33575;52.600;7.318;2023-03-03T01:16:57;102357.89;;;1.02;95.66
47811;BME280;33575;52.600;7.318;2023-03-03T01:19:27;102352.76;;;1.09;95.02
47811;BME280;33575;52.600;7.318;2023-03-03T01:21:57;102355.08;;;1.11;94.55
47811;BME280;33575;52.600;7.318;2023-03-03T01:24:28;102353.03;;;1.19;94.36
47811;BME280;33575;52.600;7.318;2023-03-03T01:26:59;102352.51;;;1.14;95.23
47811;BME280;33575;52.600;7.318;2023-03-03T01:29:29;102353.03;;;1.15;95.25
47811;BME280;33575;52.600;7.318;2023-03-03T01:32:00;102350.14;;;1.22;94.79
47811;BME280;33575;52.600;7.318;2023-03-03T01:34:30;102352.81;;;1.18;95.63
47811;BME280;33575;52.600;7.318;2023-03-03T01:37:00;102350.63;;;1.14;94.88
47811;BME280;33575;52.600;7.318;2023-03-03T01:39:31;102352.61;;;1.11;94.05
47811;BME280;33575;52.600;7.318;2023-03-03T01:42:03;102357.14;;;1.06;94.64
47811;BME280;33575;52.600;7.318;2023-03-03T01:44:32;102350.16;;;1.04;95.27
47811;BME280;33575;52.600;7.318;2023-03-03T01:47:07;102356.46;;;1.11;95.54
47811;BME280;33575;52.600;7.318;2023-03-03T01:49:36;102354.70;;;1.06;97.40
47811;BME280;33575;52.600;7.318;2023-03-03T01:52:10;102350.96;;;1.12;96.52
47811;BME280;33575;52.600;7.318;2023-03-03T01:54:38;102349.71;;;1.01;97.26
47811;BME280;33575;52.600;7.318;2023-03-03T01:57:08;102347.30;;;0.97;97.33
47811;BME280;33575;52.600;7.318;2023-03-03T01:59:40;102348.30;;;0.73;98.75
47811;BME280;33575;52.600;7.318;2023-03-03T02:02:07;102349.36;;;0.72;98.31
47811;BME280;33575;52.600;7.318;2023-03-03T02:04:37;102348.02;;;0.69;98.44
47811;BME280;33575;52.600;7.318;2023-03-03T02:07:08;102347.97;;;0.78;97.97
47811;BME280;33575;52.600;7.318;2023-03-03T02:09:45;102345.40;;;0.79;98.29
47811;BME280;33575;52.600;7.318;2023-03-03T02:12:11;102343.07;;;0.76;98.04
47811;BME280;33575;52.600;7.318;2023-03-03T02:14:38;102339.85;;;0.87;97.44
47811;BME280;33575;52.600;7.318;2023-03-03T02:17:08;102338.49;;;0.85;96.88
47811;BME280;33575;52.600;7.318;2023-03-03T02:19:45;102336.08;;;0.72;97.36
47811;BME280;33575;52.600;7.318;2023-03-03T02:22:09;102337.17;;;0.71;98.47
47811;BME280;33575;52.600;7.318;2023-03-03T02:24:44;102339.45;;;0.76;98.39
47811;BME280;33575;52.600;7.318;2023-03-03T02:27:10;102340.94;;;0.63;99.10
47811;BME280;33575;52.600;7.318;2023-03-03T02:29:39;102336.02;;;0.66;98.59
47811;BME280;33575;52.600;7.318;2023-03-03T02:32:10;102333.88;;;0.82;97.09
47811;BME280;33575;52.600;7.318;2023-03-03T02:34:45;102332.66;;;0.93;96.06
47811;BME280;33575;52.600;7.318;2023-03-03T02:37:11;102336.35;;;0.99;96.13
47811;BME280;33575;52.600;7.318;2023-03-03T02:39:42;102338.31;;;1.01;96.20
47811;BME280;33575;52.600;7.318;2023-03-03T02:42:15;102338.97;;;1.13;95.95
47811;BME280;33575;52.600;7.318;2023-03-03T02:44:43;102339.63;;;1.09;96.27
47811;BME280;33575;52.600;7.318;2023-03-03T02:47:13;102332.15;;;1.09;96.31
47811;BME280;33575;52.600;7.318;2023-03-03T02:49:44;102329.34;;;1.07;96.94
47811;BME280;33575;52.600;7.318;2023-03-03T02:52:14;102326.46;;;1.05;96.61
47811;BME280;33575;52.600;7.318;2023-03-03T02:54:44;102331.20;;;1.03;96.74
47811;BME280;33575;52.600;7.318;2023-03-03T02:57:15;102334.88;;;1.07;97.18
47811;BME280;33575;52.600;7.318;2023-03-03T02:59:45;102335.03;;;1.07;97.22
47811;BME280;33575;52.600;7.318;2023-03-03T03:02:16;102331.40;;;1.17;96.85
47811;BME280;33575;52.600;7.318;2023-03-03T03:04:46;102329.68;;;1.18;96.21
47811;BME280;33575;52.600;7.318;2023-03-03T03:07:16;102333.77;;;1.24;95.68
47811;BME280;33575;52.600;7.318;2023-03-03T03:09:47;102337.21;;;1.26;96.04
47811;BME280;33575;52.600;7.318;2023-03-03T03:12:18;102341.39;;;1.23;96.20
47811;BME280;33575;52.600;7.318;2023-03-03T03:14:48;102339.71;;;1.25;95.83
47811;BME280;33575;52.600;7.318;2023-03-03T03:17:18;102336.61;;;1.22;96.09
47811;BME280;33575;52.600;7.318;2023-03-03T03:19:48;102340.01;;;1.04;96.31
47811;BME280;33575;52.600;7.318;2023-03-03T03:22:19;102339.76;;;0.87;97.12
47811;BME280;33575;52.600;7.318;2023-03-03T03:24:49;102344.45;;;0.83;98.11
47811;BME280;33575;52.600;7.318;2023-03-03T03:27:19;102343.11;;;0.95;97.27
47811;BME280;33575;52.600;7.318;2023-03-03T03:29:49;102340.50;;;1.04;96.83
47811;BME280;33575;52.600;7.318;2023-03-03T03:32:20;102335.74;;;1.18;96.86
47811;BME280;33575;52.600;7.318;2023-03-03T03:34:50;102342.48;;;1.31;96.63
47811;BME280;33575;52.600;7.318;2023-03-03T03:37:20;102341.40;;;1.26;98.95
47811;BME280;33575;52.600;7.318;2023-03-03T03:39:51;102338.36;;;1.46;98.02
47811;BME280;33575;52.600;7.318;2023-03-03T03:42:21;102338.63;;;1.46;94.97
47811;BME280;33575;52.600;7.318;2023-03-03T03:44:52;102342.35;;;1.22;91.28
47811;BME280;33575;52.600;7.318;2023-03-03T03:47:23;102344.36;;;1.06;91.71
47811;BME280;33575;52.600;7.318;2023-03-03T03:49:52;102344.58;;;0.93;91.16
47811;BME280;33575;52.600;7.318;2023-03-03T03:52:23;102346.25;;;0.82;92.60
47811;BME280;33575;52.600;7.318;2023-03-03T03:54:54;102349.36;;;0.81;93.77
47811;BME280;33575;52.600;7.318;2023-03-03T03:57:27;102351.70;;;0.79;93.97
47811;BME280;33575;52.600;7.318;2023-03-03T03:59:55;102350.28;;;0.80;94.11
47811;BME280;33575;52.600;7.318;2023-03-03T04:02:26;102343.87;;;0.83;94.52
47811;BME280;33575;52.600;7.318;2023-03-03T04:04:56;102350.06;;;0.85;94.93
47811;BME280;33575;52.600;7.318;2023-03-03T04:07:26;102345.41;;;0.91;94.19
47811;BME280;33575;52.600;7.318;2023-03-03T04:09:56;102347.19;;;0.99;94.76
47811;BME280;33575;52.600;7.318;2023-03-03T04:12:26;102343.72;;;1.07;94.75
47811;BME280;33575;52.600;7.318;2023-03-03T04:14:57;102343.64;;;1.08;95.20
47811;BME280;33575;52.600;7.318;2023-03-03T04:17:28;102346.46;;;1.05;95.78
47811;BME280;33575;52.600;7.318;2023-03-03T04:19:58;102344.08;;;1.06;95.69
47811;BME280;33575;52.600;7.318;2023-03-03T04:22:29;102346.51;;;1.07;94.63
47811;BME280;33575;52.600;7.318;2023-03-03T04:24:59;102344.30;;;1.06;94.56
47811;BME280;33575;52.600;7.318;2023-03-03T04:27:29;102344.47;;;1.06;94.71
47811;BME280;33575;52.600;7.318;2023-03-03T04:30:00;102343.53;;;1.08;94.78
47811;BME280;33575;52.600;7.318;2023-03-03T04:32:30;102340.29;;;1.09;93.81
47811;BME280;33575;52.600;7.318;2023-03-03T04:35:05;102340.53;;;1.10;94.38
47811;BME280;33575;52.600;7.318;2023-03-03T04:37:31;102344.36;;;1.12;93.55
47811;BME280;33575;52.600;7.318;2023-03-03T04:40:02;102341.67;;;1.13;94.12
47811;BME280;33575;52.600;7.318;2023-03-03T04:42:31;102340.40;;;1.13;94.62
47811;BME280;33575;52.600;7.318;2023-03-03T04:45:03;102346.66;;;1.18;95.18
47811;BME280;33575;52.600;7.318;2023-03-03T04:47:32;102347.22;;;1.18;95.05
47811;BME280;33575;52.600;7.318;2023-03-03T04:50:04;102350.19;;;1.12;95.66
47811;BME280;33575;52.600;7.318;2023-03-03T04:52:33;102355.32;;;1.11;96.70
47811;BME280;33575;52.600;7.318;2023-03-03T04:55:05;102358.46;;;1.17;96.06
47811;BME280;33575;52.600;7.318;2023-03-03T04:57:34;102358.15;;;1.20;96.16
47811;BME280;33575;52.600;7.318;2023-03-03T05:00:06;102355.52;;;1.24;96.47
47811;BME280;33575;52.600;7.318;2023-03-03T05:02:35;102353.31;;;1.26;95.69
47811;BME280;33575;52.600;7.318;2023-03-03T05:05:06;102356.11;;;1.36;95.71
47811;BME280;33575;52.600;7.318;2023-03-03T05:07:35;102359.12;;;1.40;94.92
47811;BME280;33575;52.600;7.318;2023-03-03T05:10:07;102358.97;;;1.48;95.17
47811;BME280;33575;52.600;7.318;2023-03-03T05:12:36;102357.67;;;1.57;95.17
47811;BME280;33575;52.600;7.318;2023-03-03T05:15:07;102358.93;;;1.61;95.65
47811;BME280;33575;52.600;7.318;2023-03-03T05:17:37;102359.64;;;1.68;95.90
47811;BME280;33575;52.600;7.318;2023-03-03T05:20:08;102356.54;;;1.76;95.75
47811;BME280;33575;52.600;7.318;2023-03-03T05:22:37;102354.02;;;1.80;94.02
47811;BME280;33575;52.600;7.318;2023-03-03T05:25:07;102353.85;;;1.86;94.15
47811;BME280;33575;52.600;7.318;2023-03-03T05:27:38;102353.58;;;1.92;93.97
47811;BME280;33575;52.600;7.318;2023-03-03T05:30:10;102354.58;;;2.01;94.10
47811;BME280;33575;52.600;7.318;2023-03-03T05:32:38;102354.19;;;2.10;93.65
47811;BME280;33575;52.600;7.318;2023-03-03T05:35:09;102351.17;;;2.22;93.77
47811;BME280;33575;52.600;7.318;2023-03-03T05:37:39;102346.92;;;2.32;93.88
47811;BME280;33575;52.600;7.318;2023-03-03T05:40:11;102347.05;;;2.39;93.91
47811;BME280;33575;52.600;7.318;2023-03-03T05:42:40;102352.42;;;2.56;100.00
47811;BME280;33575;52.600;7.318;2023-03-03T05:45:11;102353.25;;;2.61;95.70
47811;BME280;33575;52.600;7.318;2023-03-03T05:47:41;102354.82;;;2.52;94.12
47811;BME280;33575;52.600;7.318;2023-03-03T05:50:11;102354.74;;;2.43;92.97
47811;BME280;33575;52.600;7.318;2023-03-03T05:52:41;102355.75;;;2.28;92.38
47811;BME280;33575;52.600;7.318;2023-03-03T05:55:11;102353.34;;;2.17;91.89
47811;BME280;33575;52.600;7.318;2023-03-03T05:57:42;102354.00;;;2.08;92.23
47811;BME280;33575;52.600;7.318;2023-03-03T06:00:13;102354.35;;;2.02;92.86
47811;BME280;33575;52.600;7.318;2023-03-03T06:02:42;102354.86;;;1.99;92.96
47811;BME280;33575;52.600;7.318;2023-03-03T06:05:13;102355.40;;;1.97;92.89
47811;BME280;33575;52.600;7.318;2023-03-03T06:07:43;102355.06;;;1.93;93.05
47811;BME280;33575;52.600;7.318;2023-03-03T06:10:14;102353.35;;;1.91;93.33
47811;BME280;33575;52.600;7.318;2023-03-03T06:12:44;102356.57;;;1.99;93.56
47811;BME280;33575;52.600;7.318;2023-03-03T06:15:15;102362.24;;;2.07;93.54
47811;BME280;33575;52.600;7.318;2023-03-03T06:17:44;102360.67;;;2.13;93.73
47811;BME280;33575;52.600;7.318;2023-03-03T06:20:15;102364.74;;;2.21;93.29
47811;BME280;33575;52.600;7.318;2023-03-03T06:22:45;102366.62;;;2.23;92.98
47811;BME280;33575;52.600;7.318;2023-03-03T06:25:15;102363.30;;;2.26;93.11
47811;BME280;33575;52.600;7.318;2023-03-03T06:27:45;102363.45;;;2.21;91.28
47811;BME280;33575;52.600;7.318;2023-03-03T06:30:16;102367.86;;;2.18;91.45
47811;BME280;33575;52.600;7.318;2023-03-03T06:32:46;102377.18;;;2.20;91.76
47811;BME280;33575;52.600;7.318;2023-03-03T06:35:17;102380.18;;;2.16;91.54
47811;BME280;33575;52.600;7.318;2023-03-03T06:37:48;102380.62;;;2.13;90.93
47811;BME280;33575;52.600;7.318;2023-03-03T06:40:18;102384.84;;;2.08;91.13
47811;BME280;33575;52.600;7.318;2023-03-03T06:42:49;102390.35;;;2.03;92.66
47811;BME280;33575;52.600;7.318;2023-03-03T06:45:19;102388.04;;;2.03;92.80
47811;BME280;33575;52.600;7.318;2023-03-03T06:47:49;102386.11;;;1.99;92.27
47811;BME280;33575;52.600;7.318;2023-03-03T06:50:20;102381.92;;;1.99;92.62
47811;BME280;33575;52.600;7.318;2023-03-03T06:52:58;102383.52;;;2.02;91.63
47811;BME280;33575;52.600;7.318;2023-03-03T06:55:22;102384.68;;;2.08;92.26
47811;BME280;33575;52.600;7.318;2023-03-03T06:57:51;102386.19;;;2.15;91.46
47811;BME280;33575;52.600;7.318;2023-03-03T07:00:24;102388.72;;;2.14;91.26
47811;BME280;33575;52.600;7.318;2023-03-03T07:02:57;102395.07;;;2.17;92.16
47811;BME280;33575;52.600;7.318;2023-03-03T07:05:25;102402.56;;;2.16;92.31
47811;BME280;33575;52.600;7.318;2023-03-03T07:07:53;102405.87;;;2.19;92.82
47811;BME280;33575;52.600;7.318;2023-03-03T07:10:25;102411.48;;;2.24;92.32
47811;BME280;33575;52.600;7.318;2023-03-03T07:12:57;102413.88;;;2.31;91.89
47811;BME280;33575;52.600;7.318;2023-03-03T07:15:29;102419.08;;;2.37;92.17
47811;BME280;33575;52.600;7.318;2023-03-03T07:17:55;102421.18;;;2.42;92.09
47811;BME280;33575;52.600;7.318;2023-03-03T07:20:31;102424.75;;;2.47;92.44
47811;BME280;33575;52.600;7.318;2023-03-03T07:22:56;102420.97;;;2.53;93.09
47811;BME280;33575;52.600;7.318;2023-03-03T07:25:30;102422.94;;;2.60;93.17
47811;BME280;33575;52.600;7.318;2023-03-03T07:27:59;102427.03;;;2.67;93.00
47811;BME280;33575;52.600;7.318;2023-03-03T07:30:27;102428.37;;;2.75;92.51
47811;BME280;33575;52.600;7.318;2023-03-03T07:32:57;102424.68;;;2.77;93.00
47811;BME280;33575;52.600;7.318;2023-03-03T07:35:35;102426.30;;;2.81;93.27
47811;BME280;33575;52.600;7.318;2023-03-03T07:37:59;102427.89;;;2.88;93.26
47811;BME280;33575;52.600;7.318;2023-03-03T07:40:35;102431.66;;;2.92;93.64
47811;BME280;33575;52.600;7.318;2023-03-03T07:42:59;102433.97;;;2.99;93.55
47811;BME280;33575;52.600;7.318;2023-03-03T07:45:31;102434.19;;;3.02;93.38
47811;BME280;33575;52.600;7.318;2023-03-03T07:48:07;102429.71;;;3.11;93.40
47811;BME280;33575;52.600;7.318;2023-03-03T07:50:30;102428.59;;;3.18;93.49
47811;BME280;33575;52.600;7.318;2023-03-03T07:53:01;102433.80;;;3.21;93.75
47811;BME280;33575;52.600;7.318;2023-03-03T07:55:34;102433.64;;;3.09;94.63
47811;BME280;33575;52.600;7.318;2023-03-03T08:03:07;102437.58;;;3.34;97.39
47811;BME280;33575;52.600;7.318;2023-03-03T08:05:34;102439.07;;;3.22;94.71
47811;BME280;33575;52.600;7.318;2023-03-03T08:08:12;102438.34;;;3.10;92.81
47811;BME280;33575;52.600;7.318;2023-03-03T08:10:37;102436.15;;;2.94;91.97
47811;BME280;33575;52.600;7.318;2023-03-03T08:13:16;102438.66;;;2.82;92.08
47811;BME280;33575;52.600;7.318;2023-03-03T08:15:36;102440.39;;;2.74;92.85
47811;BME280;33575;52.600;7.318;2023-03-03T08:18:18;102443.37;;;2.70;92.92
47811;BME280;33575;52.600;7.318;2023-03-03T08:20:42;102444.26;;;2.66;92.88
47811;BME280;33575;52.600;7.318;2023-03-03T08:23:06;102447.23;;;2.60;93.44
47811;BME280;33575;52.600;7.318;2023-03-03T08:25:37;102449.61;;;2.59;94.07
47811;BME280;33575;52.600;7.318;2023-03-03T08:28:08;102446.15;;;2.66;93.87
47811;BME280;33575;52.600;7.318;2023-03-03T08:30:39;102446.55;;;2.62;93.86
47811;BME280;33575;52.600;7.318;2023-03-03T08:33:10;102444.40;;;2.63;93.88
47811;BME280;33575;52.600;7.318;2023-03-03T08:35:40;102444.71;;;2.65;94.06
47811;BME280;33575;52.600;7.318;2023-03-03T08:38:11;102444.03;;;2.62;94.30
47811;BME280;33575;52.600;7.318;2023-03-03T08:40:42;102443.05;;;2.62;94.01
47811;BME280;33575;52.600;7.318;2023-03-03T08:43:12;102444.23;;;2.65;94.13
47811;BME280;33575;52.600;7.318;2023-03-03T08:45:43;102441.48;;;2.71;94.24
47811;BME280;33575;52.600;7.318;2023-03-03T08:48:13;102443.44;;;2.75;94.43
47811;BME280;33575;52.600;7.318;2023-03-03T08:50:43;102451.09;;;2.78;93.64
47811;BME280;33575;52.600;7.318;2023-03-03T08:53:13;102450.22;;;2.79;93.48
47811;BME280;33575;52.600;7.318;2023-03-03T08:55:44;102451.29;;;2.88;93.92
47811;BME280;33575;52.600;7.318;2023-03-03T08:58:15;102449.36;;;2.95;93.73
47811;BME280;33575;52.600;7.318;2023-03-03T09:00:47;102447.60;;;2.98;93.07
47811;BME280;33575;52.600;7.318;2023-03-03T09:03:15;102445.81;;;3.06;93.75
47811;BME280;33575;52.600;7.318;2023-03-03T09:05:46;102447.56;;;3.16;93.50
47811;BME280;33575;52.600;7.318;2023-03-03T09:08:17;102447.73;;;3.22;92.75
47811;BME280;33575;52.600;7.318;2023-03-03T09:10:47;102449.61;;;3.28;92.65
47811;BME280;33575;52.600;7.318;2023-03-03T09:13:18;102456.27;;;3.31;92.95
47811;BME280;33575;52.600;7.318;2023-03-03T09:15:49;102455.44;;;3.30;92.39
47811;BME280;33575;52.600;7.318;2023-03-03T09:18:20;102456.16;;;3.34;92.62
47811;BME280;33575;52.600;7.318;2023-03-03T09:20:51;102457.48;;;3.35;92.41
47811;BME280;33575;52.600;7.318;2023-03-03T09:23:28;102456.57;;;3.38;92.62
47811;BME280;33575;52.600;7.318;2023-03-03T09:25:51;102457.93;;;3.42;92.27
47811;BME280;33575;52.600;7.318;2023-03-03T09:28:24;102453.79;;;3.42;92.68
47811;BME280;33575;52.600;7.318;2023-03-03T09:30:53;102458.97;;;3.42;92.75
47811;BME280;33575;52.600;7.318;2023-03-03T09:33:25;102454.75;;;3.47;92.21
47811;BME280;33575;52.600;7.318;2023-03-03T09:35:57;102458.74;;;3.39;92.67
47811;BME280;33575;52.600;7.318;2023-03-03T09:38:27;102459.30;;;3.37;92.37
47811;BME280;33575;52.600;7.318;2023-03-03T09:43:33;102462.41;;;3.54;92.46
47811;BME280;33575;52.600;7.318;2023-03-03T09:46:01;102460.27;;;3.61;91.75
47811;BME280;33575;52.600;7.318;2023-03-03T09:48:34;102462.57;;;3.69;92.10
47811;BME280;33575;52.600;7.318;2023-03-03T09:51:05;102467.10;;;3.71;91.72
47811;BME280;33575;52.600;7.318;2023-03-03T09:53:39;102467.91;;;3.71;91.00
47811;BME280;33575;52.600;7.318;2023-03-03T09:56:00;102467.44;;;3.78;91.99
47811;BME280;33575;52.600;7.318;2023-03-03T09:58:40;102466.12;;;3.85;91.38
47811;BME280;33575;52.600;7.318;2023-03-03T10:01:05;102466.88;;;3.89;90.78
47811;BME280;33575;52.600;7.318;2023-03-03T10:03:44;102465.24;;;3.97;92.63
47811;BME280;33575;52.600;7.318;2023-03-03T10:06:03;102463.58;;;4.14;92.39
47811;BME280;33575;52.600;7.318;2023-03-03T10:08:44;102466.46;;;4.33;91.96
47811;BME280;33575;52.600;7.318;2023-03-03T10:11:08;102465.89;;;4.53;92.08
47811;BME280;33575;52.600;7.318;2023-03-03T10:13:41;102462.24;;;4.77;91.87
47811;BME280;33575;52.600;7.318;2023-03-03T10:16:16;102459.29;;;4.96;91.64
47811;BME280;33575;52.600;7.318;2023-03-03T10:18:38;102456.77;;;5.11;89.92
47811;BME280;33575;52.600;7.318;2023-03-03T10:21:08;102456.28;;;5.20;90.31
47811;BME280;33575;52.600;7.318;2023-03-03T10:23:47;102457.04;;;5.32;90.03
47811;BME280;33575;52.600;7.318;2023-03-03T10:26:13;102457.27;;;5.40;89.36
47811;BME280;33575;52.600;7.318;2023-03-03T10:28:46;102458.10;;;5.55;90.39
47811;BME280;33575;52.600;7.318;2023-03-03T10:31:14;102458.93;;;5.68;88.58
47811;BME280;33575;52.600;7.318;2023-03-03T10:33:43;102458.51;;;5.75;89.02
47811;BME280;33575;52.600;7.318;2023-03-03T10:36:23;102457.59;;;5.81;89.90
47811;BME280;33575;52.600;7.318;2023-03-03T10:38:45;102456.12;;;5.96;89.94
47811;BME280;33575;52.600;7.318;2023-03-03T10:41:20;102455.54;;;6.22;90.53
47811;BME280;33575;52.600;7.318;2023-03-03T10:43:49;102455.31;;;6.38;87.91
47811;BME280;33575;52.600;7.318;2023-03-03T10:46:23;102458.75;;;6.48;88.19
47811;BME280;33575;52.600;7.318;2023-03-03T10:48:53;102454.65;;;6.66;88.65
47811;BME280;33575;52.600;7.318;2023-03-03T10:51:18;102451.45;;;6.90;87.65
47811;BME280;33575;52.600;7.318;2023-03-03T10:53:46;102445.15;;;6.87;84.53
47811;BME280;33575;52.600;7.318;2023-03-03T10:56:21;102445.01;;;6.82;83.26
47811;BME280;33575;52.600;7.318;2023-03-03T11:01:20;102447.90;;;6.66;82.11
47811;BME280;33575;52.600;7.318;2023-03-03T11:06:18;102445.19;;;6.79;82.42
47811;BME280;33575;52.600;7.318;2023-03-03T11:08:49;102440.25;;;6.86;83.74
47811;BME280;33575;52.600;7.318;2023-03-03T11:11:21;102440.12;;;7.05;83.88
47811;BME280;33575;52.600;7.318;2023-03-03T11:13:50;102438.53;;;7.34;85.19
47811;BME280;33575;52.600;7.318;2023-03-03T11:16:27;102435.07;;;7.63;83.49
47811;BME280;33575;52.600;7.318;2023-03-03T11:18:58;102429.71;;;7.92;83.50
47811;BME280;33575;52.600;7.318;2023-03-03T11:21:22;102433.75;;;7.73;79.90
47811;BME280;33575;52.600;7.318;2023-03-03T11:23:56;102433.28;;;7.77;80.09
47811;BME280;33575;52.600;7.318;2023-03-03T11:26:31;102434.55;;;7.89;80.75
47811;BME280;33575;52.600;7.318;2023-03-03T11:29:00;102436.89;;;7.98;80.87
47811;BME280;33575;52.600;7.318;2023-03-03T11:31:26;102437.29;;;7.96;78.53
47811;BME280;33575;52.600;7.318;2023-03-03T11:33:56;102436.79;;;7.86;79.18
47811;BME280;33575;52.600;7.318;2023-03-03T11:36:25;102434.85;;;7.93;79.68
47811;BME280;33575;52.600;7.318;2023-03-03T11:38:56;102436.87;;;8.04;79.83
47811;BME280;33575;52.600;7.318;2023-03-03T11:41:30;102436.95;;;7.84;76.93
47811;BME280;33575;52.600;7.318;2023-03-03T11:43:56;102435.44;;;7.32;77.50
47811;BME280;33575;52.600;7.318;2023-03-03T11:46:26;102432.75;;;7.43;78.69
47811;BME280;33575;52.600;7.318;2023-03-03T11:48:58;102434.83;;;7.36;79.46
47811;BME280;33575;52.600;7.318;2023-03-03T11:51:33;102433.70;;;7.38;79.71
47811;BME280;33575;52.600;7.318;2023-03-03T11:54:00;102428.82;;;7.40;79.77
47811;BME280;33575;52.600;7.318;2023-03-03T11:56:31;102423.40;;;7.44;79.79
47811;BME280;33575;52.600;7.318;2023-03-03T11:59:06;102422.33;;;7.48;79.36
47811;BME280;33575;52.600;7.318;2023-03-03T12:01:32;102419.00;;;7.44;80.40
47811;BME280;33575;52.600;7.318;2023-03-03T12:04:00;102415.42;;;7.49;79.79
47811;BME280;33575;52.600;7.318;2023-03-03T12:06:37;102413.81;;;7.46;79.65
47811;BME280;33575;52.600;7.318;2023-03-03T12:09:10;102411.48;;;7.26;79.24
47811;BME280;33575;52.600;7.318;2023-03-03T12:11:35;102415.59;;;7.25;78.93
47811;BME280;33575;52.600;7.318;2023-03-03T12:14:05;102409.76;;;6.87;77.59
47811;BME280;33575;52.600;7.318;2023-03-03T12:16:39;102403.98;;;6.57;78.26
47811;BME280;33575;52.600;7.318;2023-03-03T12:19:11;102401.51;;;6.56;78.30
47811;BME280;33575;52.600;7.318;2023-03-03T12:21:45;102401.25;;;6.29;79.16
47811;BME280;33575;52.600;7.318;2023-03-03T12:24:14;102404.52;;;6.29;79.55
47811;BME280;33575;52.600;7.318;2023-03-03T12:26:40;102403.83;;;5.85;78.24
47811;BME280;33575;52.600;7.318;2023-03-03T12:29:06;102401.00;;;5.82;79.76
47811;BME280;33575;52.600;7.318;2023-03-03T12:31:45;102399.74;;;5.97;78.99
47811;BME280;33575;52.600;7.318;2023-03-03T12:34:11;102398.62;;;5.89;78.88
47811;BME280;33575;52.600;7.318;2023-03-03T12:39:11;102391.89;;;5.86;78.13
47811;BME280;33575;52.600;7.318;2023-03-03T12:41:43;102394.12;;;6.11;78.03
47811;BME280;33575;52.600;7.318;2023-03-03T12:44:16;102390.16;;;6.16;77.09
47811;BME280;33575;52.600;7.318;2023-03-03T12:46:44;102384.53;;;6.05;77.72
47811;BME280;33575;52.600;7.318;2023-03-03T12:49:10;102388.51;;;5.54;81.25
47811;BME280;33575;52.600;7.318;2023-03-03T12:51:50;102387.93;;;5.50;82.41
47811;BME280;33575;52.600;7.318;2023-03-03T12:54:21;102385.61;;;5.60;82.36
47811;BME280;33575;52.600;7.318;2023-03-03T12:56:46;102384.44;;;5.76;81.87
47811;BME280;33575;52.600;7.318;2023-03-03T12:59:19;102386.73;;;5.42;82.36
47811;BME280;33575;52.600;7.318;2023-03-03T13:01:57;102382.39;;;5.44;81.90
47811;BME280;33575;52.600;7.318;2023-03-03T13:06:50;102385.70;;;4.80;82.38
47811;BME280;33575;52.600;7.318;2023-03-03T13:09:25;102380.45;;;4.89;82.24
47811;BME280;33575;52.600;7.318;2023-03-03T13:11:59;102381.00;;;4.73;82.18
47811;BME280;33575;52.600;7.318;2023-03-03T13:14:27;102378.84;;;4.66;82.32
47811;BME280;33575;52.600;7.318;2023-03-03T13:16:58;102375.39;;;4.54;82.92
47811;BME280;33575;52.600;7.318;2023-03-03T13:19:21;102371.93;;;4.78;82.19
47811;BME280;33575;52.600;7.318;2023-03-03T13:21:54;102373.82;;;4.97;81.50
47811;BME280;33575;52.600;7.318;2023-03-03T13:24:23;102371.11;;;5.16;81.85
47811;BME280;33575;52.600;7.318;2023-03-03T13:26:54;102369.55;;;5.23;80.64
47811;BME280;33575;52.600;7.318;2023-03-03T13:29:25;102366.95;;;5.38;80.46
47811;BME280;33575;52.600;7.318;2023-03-03T13:31:55;102365.05;;;5.26;80.40
47811;BME280;33575;52.600;7.318;2023-03-03T13:34:34;102362.21;;;5.30;80.96
47811;BME280;33575;52.600;7.318;2023-03-03T13:36:58;102364.61;;;5.00;80.97